Time;durP1;ratioP1;P1;durP2;ratioP2;P2;SDS_P1;SDS_P2;PMS_P1;PMS_P2;Temp;Humidity;BMP_temperature;BMP_pressure;BME280_temperature;BME280_humidity;BME280_pressure;Samples;Min_cycle;Max_cycle;Signal;HPM_P1;HPM_P2
2023/07/06 00:01:46;;;;;;;6.18;3.60;;;;;;;16.91;89.50;96781.03;5041888;28;20234;-59
2023/07/06 00:04:15;;;;;;;3.83;3.30;;;;;;;16.84;90.44;96784.59;5040863;28;20330;-59
2023/07/06 00:06:45;;;;;;;3.90;3.60;;;;;;;16.82;90.45;96782.13;5042756;28;20208;-58
2023/07/06 00:09:13;;;;;;;4.55;3.80;;;;;;;16.73;90.06;96775.16;5042795;28;20286;-58
2023/07/06 00:11:41;;;;;;;3.97;3.60;;;;;;;16.72;91.39;96783.38;5058491;28;20291;-59
2023/07/06 00:14:11;;;;;;;4.63;3.70;;;;;;;16.56;90.38;96776.28;5058977;28;20208;-59
2023/07/06 00:16:41;;;;;;;3.88;3.25;;;;;;;16.50;90.25;96766.28;5044499;28;20212;-59
2023/07/06 00:19:08;;;;;;;4.13;3.72;;;;;;;16.46;89.88;96758.78;5041290;28;20307;-59
2023/07/06 00:21:36;;;;;;;5.07;4.57;;;;;;;16.31;90.02;96758.72;5041769;28;20255;-59
2023/07/06 00:24:02;;;;;;;3.67;3.38;;;;;;;16.27;89.62;96766.25;5041964;28;20506;-59
2023/07/06 00:26:29;;;;;;;3.83;3.50;;;;;;;16.17;86.68;96770.97;5041543;28;20203;-59
2023/07/06 00:28:55;;;;;;;4.10;3.35;;;;;;;16.10;86.51;96777.16;5041397;28;20204;-58
2023/07/06 00:31:32;;;;;;;4.20;3.67;;;;;;;16.01;88.73;96771.06;5054097;28;20200;-59
2023/07/06 00:34:03;;;;;;;3.72;3.45;;;;;;;16.02;90.24;96771.84;5062702;28;20202;-59
2023/07/06 00:36:30;;;;;;;3.80;3.50;;;;;;;16.06;91.90;96770.50;5062843;28;20218;-59
2023/07/06 00:39:01;;;;;;;4.20;3.80;;;;;;;16.11;90.14;96770.84;5042716;28;20219;-58
2023/07/06 00:41:28;;;;;;;3.80;3.50;;;;;;;16.11;91.12;96782.34;5040864;28;20288;-58
2023/07/06 00:43:55;;;;;;;4.55;3.47;;;;;;;16.11;92.73;96779.69;5040080;28;20273;-58
2023/07/06 00:46:29;;;;;;;3.92;3.60;;;;;;;16.16;91.13;96777.31;5041488;28;20222;-58
2023/07/06 00:48:57;;;;;;;4.65;3.70;;;;;;;16.15;90.08;96773.00;5042110;28;20225;-58
2023/07/06 00:51:27;;;;;;;4.13;3.72;;;;;;;16.16;89.75;96773.78;5041487;28;20206;-59
2023/07/06 00:54:01;;;;;;;4.53;3.75;;;;;;;16.15;88.81;96766.81;5044006;28;20290;-59
2023/07/06 00:56:30;;;;;;;3.63;3.28;;;;;;;16.17;90.04;96770.13;5045159;28;20202;-58
2023/07/06 00:59:05;;;;;;;4.07;3.30;;;;;;;16.17;89.95;96775.47;5044978;28;20251;-59
2023/07/06 01:01:34;;;;;;;4.50;3.65;;;;;;;16.16;91.07;96774.63;5045326;28;20297;-58
2023/07/06 01:04:02;;;;;;;4.20;3.80;;;;;;;16.16;91.18;96776.47;5045309;28;20234;-58
2023/07/06 01:06:30;;;;;;;4.10;3.60;;;;;;;16.15;89.99;96774.81;5062386;28;20214;-58
2023/07/06 01:08:57;;;;;;;3.83;3.53;;;;;;;16.15;90.08;96780.16;5055320;28;20223;-58
2023/07/06 01:11:24;;;;;;;4.70;3.83;;;;;;;16.13;89.90;96771.47;5045829;28;20226;-59
2023/07/06 01:13:52;;;;;;;4.00;3.70;;;;;;;16.13;90.75;96766.16;5044474;28;20223;-59
2023/07/06 01:16:25;;;;;;;4.20;3.50;;;;;;;16.07;89.96;96758.84;5044551;28;20203;-59
2023/07/06 01:18:56;;;;;;;4.10;3.70;;;;;;;16.05;89.20;96755.53;5044489;28;20219;-59
2023/07/06 01:21:31;;;;;;;3.80;3.50;;;;;;;15.93;87.24;96758.59;5045387;28;20265;-58
2023/07/06 01:24:20;;;;;;;4.38;3.85;;;;;;;15.89;90.11;96757.25;5048406;28;20218;-60
2023/07/06 01:26:59;;;;;;;6.85;3.55;;;;;;;15.85;90.21;96761.28;5063183;28;20231;-60
2023/07/06 01:29:44;;;;;;;4.30;3.90;;;;;;;15.83;91.37;96765.13;5046507;28;20210;-59
2023/07/06 01:32:18;;;;;;;4.25;3.85;;;;;;;15.76;88.53;96765.00;5044676;28;20195;-59
2023/07/06 01:34:48;;;;;;;4.32;3.80;;;;;;;15.73;89.80;96762.63;5045058;28;20200;-59
2023/07/06 01:37:18;;;;;;;3.47;3.20;;;;;;;15.70;89.53;96772.81;5045508;28;20207;-59
2023/07/06 01:39:45;;;;;;;4.00;3.70;;;;;;;15.67;89.67;96776.66;5044674;28;20208;-59
2023/07/06 01:42:26;;;;;;;3.83;3.53;;;;;;;15.59;89.79;96760.69;5043915;28;20544;-60
2023/07/06 01:44:56;;;;;;;3.97;3.67;;;;;;;15.58;91.25;96748.38;5044467;28;20249;-58
2023/07/06 01:47:25;;;;;;;4.77;3.70;;;;;;;15.38;89.25;96750.56;5044021;28;20654;-59
2023/07/06 01:49:52;;;;;;;3.63;3.33;;;;;;;15.35;91.97;96761.56;5044143;28;20235;-57
2023/07/06 01:52:27;;;;;;;6.50;4.17;;;;;;;15.37;93.22;96764.06;5044920;28;21454;-60
2023/07/06 01:54:58;;;;;;;4.07;3.77;;;;;;;15.37;93.68;96758.72;5044454;28;20204;-59
2023/07/06 01:57:29;;;;;;;5.43;4.03;;;;;;;15.36;92.96;96760.56;5045111;28;20211;-59
2023/07/06 02:00:00;;;;;;;3.80;3.50;;;;;;;15.34;93.38;96756.38;5044130;28;20203;-59
2023/07/06 02:02:30;;;;;;;3.97;3.58;;;;;;;15.29;94.15;96756.06;5043538;28;21361;-58
2023/07/06 02:04:56;;;;;;;4.60;3.77;;;;;;;15.24;93.67;96761.06;5043478;28;20282;-58
2023/07/06 02:07:23;;;;;;;3.90;3.50;;;;;;;15.20;95.38;96765.91;5045222;28;20214;-58
2023/07/06 02:09:54;;;;;;;3.60;3.40;;;;;;;15.16;94.19;96769.09;5043863;28;20203;-58
2023/07/06 02:12:21;;;;;;;4.30;4.00;;;;;;;15.21;96.62;96766.75;5044020;28;20199;-59
2023/07/06 02:14:48;;;;;;;5.70;3.63;;;;;;;15.22;97.19;96768.41;5043915;28;20214;-59
2023/07/06 02:17:15;;;;;;;4.20;3.80;;;;;;;15.25;96.24;96763.56;5043552;28;20207;-59
2023/07/06 02:19:43;;;;;;;4.60;4.10;;;;;;;15.29;96.65;96769.41;5043332;28;20204;-59
2023/07/06 02:22:12;;;;;;;4.50;4.03;;;;;;;15.31;96.60;96772.72;5044181;28;20383;-59
2023/07/06 02:24:39;;;;;;;4.55;4.07;;;;;;;15.33;97.79;96770.72;5043925;28;20203;-59
2023/07/06 02:27:09;;;;;;;5.10;3.95;;;;;;;15.35;95.85;96763.38;5043641;28;20218;-58
2023/07/06 02:29:36;;;;;;;4.25;3.90;;;;;;;15.36;95.69;96770.38;5043232;28;20198;-58
2023/07/06 02:32:03;;;;;;;3.97;3.65;;;;;;;15.36;96.29;96759.72;5043543;28;20333;-58
2023/07/06 02:34:29;;;;;;;5.43;3.95;;;;;;;15.37;99.04;96764.88;5043807;28;20203;-59
2023/07/06 02:36:57;;;;;;;4.95;4.13;;;;;;;15.39;98.00;96754.88;5044281;28;20437;-57
2023/07/06 02:39:24;;;;;;;4.50;4.10;;;;;;;15.45;96.29;96764.03;5042865;28;20200;-59
2023/07/06 02:41:52;;;;;;;4.20;3.90;;;;;;;15.50;98.13;96753.72;5042655;28;20663;-59
2023/07/06 02:44:19;;;;;;;4.40;4.00;;;;;;;15.53;99.66;96733.88;5043500;28;20286;-58
2023/07/06 02:46:46;;;;;;;4.53;4.13;;;;;;;15.57;100.00;96736.03;5043303;28;20215;-59
2023/07/06 02:49:13;;;;;;;4.53;3.90;;;;;;;15.64;99.82;96736.19;5043698;28;20510;-58
2023/07/06 02:51:40;;;;;;;6.22;4.47;;;;;;;15.61;100.00;96737.38;5043664;28;20214;-59
2023/07/06 02:54:10;;;;;;;6.45;4.32;;;;;;;15.65;100.00;96733.38;5043696;28;20249;-59
2023/07/06 02:56:36;;;;;;;6.53;4.37;;;;;;;15.67;100.00;96731.34;5043815;28;20219;-60
2023/07/06 02:59:03;;;;;;;4.33;3.93;;;;;;;15.71;100.00;96730.00;5043377;28;20207;-59
2023/07/06 03:01:30;;;;;;;5.18;4.28;;;;;;;15.75;100.00;96728.66;5043519;28;20222;-59
2023/07/06 03:03:56;;;;;;;4.43;4.00;;;;;;;15.77;100.00;96734.63;5042030;28;20711;-59
2023/07/06 03:06:23;;;;;;;5.30;4.80;;;;;;;15.75;100.00;96733.16;5042303;28;20208;-59
2023/07/06 03:08:49;;;;;;;5.85;4.38;;;;;;;15.73;100.00;96735.97;5043798;28;20338;-59
2023/07/06 03:11:17;;;;;;;5.03;4.53;;;;;;;15.72;100.00;96729.00;5043089;28;20215;-59
2023/07/06 03:13:44;;;;;;;4.80;4.40;;;;;;;15.75;100.00;96735.81;5045665;28;20207;-59
2023/07/06 03:16:12;;;;;;;4.53;4.13;;;;;;;15.78;100.00;96738.13;5044740;28;20803;-59
2023/07/06 03:18:40;;;;;;;5.13;4.70;;;;;;;15.85;100.00;96742.59;5047238;28;20208;-59
2023/07/06 03:21:07;;;;;;;4.82;4.30;;;;;;;15.80;100.00;96742.28;5050928;28;20328;-58
2023/07/06 03:23:33;;;;;;;5.05;4.65;;;;;;;15.82;100.00;96739.47;5049060;28;20227;-59
2023/07/06 03:25:59;;;;;;;4.88;4.47;;;;;;;15.83;100.00;96739.28;5044484;28;20212;-60
2023/07/06 03:28:28;;;;;;;5.10;4.30;;;;;;;15.85;100.00;96734.59;5041821;28;20210;-59
2023/07/06 03:30:56;;;;;;;5.15;4.45;;;;;;;15.88;100.00;96734.25;5042528;28;20222;-60
2023/07/06 03:33:24;;;;;;;5.30;4.40;;;;;;;15.91;100.00;96725.91;5042242;28;20195;-57
2023/07/06 03:35:53;;;;;;;5.03;4.57;;;;;;;15.96;100.00;96729.88;5041631;28;20207;-60
2023/07/06 03:38:19;;;;;;;5.30;4.80;;;;;;;15.99;100.00;96724.19;5042670;28;20215;-59
2023/07/06 03:40:49;;;;;;;5.28;4.78;;;;;;;15.99;100.00;96717.03;5042112;28;20266;-58
2023/07/06 03:43:16;;;;;;;5.15;4.75;;;;;;;15.99;100.00;96724.19;5041638;28;20306;-59
2023/07/06 03:45:46;;;;;;;5.88;4.75;;;;;;;16.01;100.00;96717.72;5042423;28;20199;-60
2023/07/06 03:48:13;;;;;;;5.88;4.60;;;;;;;16.03;100.00;96721.03;5040560;28;20291;-59
2023/07/06 03:50:39;;;;;;;5.10;4.60;;;;;;;16.01;100.00;96723.03;5042801;28;20222;-58
2023/07/06 03:53:07;;;;;;;5.25;4.55;;;;;;;15.98;100.00;96722.56;5042263;28;20653;-59
2023/07/06 03:55:34;;;;;;;4.80;4.40;;;;;;;16.01;100.00;96727.53;5041467;28;20571;-58
2023/07/06 03:58:03;;;;;;;9.02;8.05;;;;;;;16.03;100.00;96715.69;5041199;28;20203;-58
2023/07/06 04:00:30;;;;;;;5.70;5.10;;;;;;;15.99;100.00;96721.53;5042925;28;20212;-59
2023/07/06 04:03:00;;;;;;;5.43;4.93;;;;;;;16.02;100.00;96730.00;5041011;28;20680;-59
2023/07/06 04:05:32;;;;;;;5.65;5.07;;;;;;;16.05;100.00;96729.66;5041553;28;20678;-58
2023/07/06 04:07:59;;;;;;;5.63;4.90;;;;;;;16.05;100.00;96729.66;5042130;28;20620;-59
2023/07/06 04:10:27;;;;;;;4.70;4.30;;;;;;;16.05;100.00;96724.31;5041697;28;20217;-59
2023/07/06 04:12:53;;;;;;;6.03;5.13;;;;;;;16.05;100.00;96727.00;5040893;28;20208;-59
2023/07/06 04:15:21;;;;;;;4.65;4.30;;;;;;;16.10;100.00;96731.81;5042081;28;20208;-58
2023/07/06 04:17:48;;;;;;;6.70;4.73;;;;;;;16.11;100.00;96733.50;5041583;28;20199;-58
2023/07/06 04:20:20;;;;;;;6.20;5.17;;;;;;;16.12;100.00;96727.16;5041699;28;20338;-59
2023/07/06 04:22:47;;;;;;;7.30;4.63;;;;;;;16.16;100.00;96723.09;5041311;28;20544;-58
2023/07/06 04:25:15;;;;;;;5.38;4.93;;;;;;;16.21;100.00;96728.75;5041911;28;20211;-59
2023/07/06 04:27:42;;;;;;;6.10;4.38;;;;;;;16.19;100.00;96728.13;5040287;28;20203;-60
2023/07/06 04:30:10;;;;;;;5.70;4.75;;;;;;;16.22;100.00;96735.75;5040679;28;20227;-59
2023/07/06 04:32:37;;;;;;;4.57;4.18;;;;;;;16.27;100.00;96738.72;5041180;28;20279;-60
2023/07/06 04:35:04;;;;;;;5.40;4.90;;;;;;;16.30;100.00;96733.84;5040541;28;20215;-60
2023/07/06 04:37:33;;;;;;;5.43;4.93;;;;;;;16.29;100.00;96736.72;5041454;28;20290;-58
2023/07/06 04:40:00;;;;;;;5.63;4.72;;;;;;;16.31;100.00;96729.34;5042462;28;20207;-60
2023/07/06 04:42:27;;;;;;;4.97;4.57;;;;;;;16.36;100.00;96733.19;5046449;28;20227;-61
2023/07/06 04:44:54;;;;;;;5.32;4.82;;;;;;;16.31;100.00;96724.03;5061218;28;20203;-60
2023/07/06 04:47:23;;;;;;;5.75;5.13;;;;;;;16.38;100.00;96728.47;5062635;28;20199;-60
2023/07/06 04:49:50;;;;;;;5.20;4.80;;;;;;;16.37;100.00;96723.31;5041508;28;20210;-58
2023/07/06 04:52:17;;;;;;;5.65;5.15;;;;;;;16.40;100.00;96728.31;5045534;28;20211;-61
2023/07/06 04:54:50;;;;;;;6.10;5.25;;;;;;;16.41;100.00;96729.94;5066644;28;20184;-59
2023/07/06 04:57:16;;;;;;;5.63;5.13;;;;;;;16.42;100.00;96726.28;5061643;28;20260;-60
2023/07/06 04:59:43;;;;;;;5.72;5.15;;;;;;;16.44;100.00;96725.09;5041514;28;20206;-58
2023/07/06 05:02:14;;;;;;;5.15;4.75;;;;;;;16.44;100.00;96725.09;5043242;28;20219;-59
2023/07/06 05:04:41;;;;;;;7.07;4.85;;;;;;;16.50;100.00;96736.09;5058509;28;20259;-60
2023/07/06 05:07:08;;;;;;;5.32;4.72;;;;;;;16.49;100.00;96732.56;5054404;28;20203;-61
2023/07/06 05:09:36;;;;;;;5.30;4.80;;;;;;;16.43;100.00;96736.81;5054447;28;20207;-60
2023/07/06 05:12:05;;;;;;;5.15;4.72;;;;;;;16.47;100.00;96739.13;5068369;28;20210;-60
2023/07/06 05:14:33;;;;;;;5.18;4.78;;;;;;;16.53;100.00;96736.56;5062445;28;20195;-59
2023/07/06 05:17:00;;;;;;;5.95;5.10;;;;;;;16.58;100.00;96739.53;5042792;28;20200;-58
2023/07/06 05:19:27;;;;;;;5.32;4.82;;;;;;;16.61;100.00;96746.38;5040248;28;20200;-58
2023/07/06 05:21:55;;;;;;;5.95;5.40;;;;;;;16.68;100.00;96747.34;5040534;28;20303;-57
2023/07/06 05:24:21;;;;;;;5.70;4.80;;;;;;;16.75;100.00;96741.09;5040442;28;20235;-58
2023/07/06 05:26:48;;;;;;;5.78;5.28;;;;;;;16.76;100.00;96742.75;5040190;28;20653;-59
2023/07/06 05:29:16;;;;;;;5.70;5.15;;;;;;;16.83;100.00;96738.34;5039868;28;20204;-59
2023/07/06 05:31:45;;;;;;;6.03;5.25;;;;;;;16.88;100.00;96744.00;5040830;28;20199;-59
2023/07/06 05:34:13;;;;;;;5.78;5.18;;;;;;;16.91;100.00;96748.97;5040871;28;20301;-57
2023/07/06 05:36:40;;;;;;;5.57;5.10;;;;;;;16.97;100.00;96741.25;5040539;28;20214;-59
2023/07/06 05:39:07;;;;;;;7.43;5.28;;;;;;;17.10;100.00;96736.97;5040818;28;20218;-58
2023/07/06 05:41:34;;;;;;;7.68;4.90;;;;;;;17.16;100.00;96746.91;5043758;28;20553;-58
2023/07/06 05:44:00;;;;;;;5.65;5.10;;;;;;;17.26;100.00;96743.97;5044668;28;20231;-58
2023/07/06 05:46:28;;;;;;;5.22;4.72;;;;;;;17.39;100.00;96746.88;5043666;28;20644;-58
2023/07/06 05:48:57;;;;;;;5.68;5.18;;;;;;;17.53;100.00;96751.41;5043940;28;20199;-58
2023/07/06 05:51:23;;;;;;;5.80;5.30;;;;;;;17.64;100.00;96745.59;5043649;28;20205;-57
2023/07/06 05:53:50;;;;;;;6.32;5.15;;;;;;;17.77;100.00;96753.00;5045273;28;20277;-58
2023/07/06 05:56:18;;;;;;;5.70;5.20;;;;;;;17.90;100.00;96751.31;5043639;28;20637;-58
2023/07/06 05:58:44;;;;;;;5.50;5.00;;;;;;;18.00;100.00;96748.34;5042637;28;20200;-57
2023/07/06 06:01:11;;;;;;;6.07;5.57;;;;;;;18.02;99.63;96748.19;5043415;28;20314;-58
2023/07/06 06:03:40;;;;;;;6.22;5.47;;;;;;;18.09;100.00;96754.44;5043869;28;20246;-58
2023/07/06 06:06:06;;;;;;;5.05;4.65;;;;;;;18.10;100.00;96742.75;5043444;28;20600;-58
2023/07/06 06:08:33;;;;;;;6.22;5.47;;;;;;;18.12;99.25;96743.38;5043218;28;20203;-58
2023/07/06 06:11:00;;;;;;;5.20;4.80;;;;;;;18.15;99.88;96745.66;5043542;28;20227;-59
2023/07/06 06:13:30;;;;;;;4.88;4.47;;;;;;;18.14;99.31;96752.06;5043742;28;20582;-58
2023/07/06 06:15:57;;;;;;;6.25;5.45;;;;;;;18.22;99.74;96754.59;5043677;28;20196;-58
2023/07/06 06:18:25;;;;;;;6.05;5.55;;;;;;;18.44;99.70;96753.63;5043367;28;20535;-57
2023/07/06 06:20:58;;;;;;;5.80;5.30;;;;;;;18.56;98.43;96746.81;5043467;28;20204;-58
2023/07/06 06:23:25;;;;;;;5.72;5.22;;;;;;;18.75;98.10;96751.53;5043487;28;20208;-58
2023/07/06 06:25:52;;;;;;;7.00;5.70;;;;;;;18.89;97.71;96747.09;5043859;28;20217;-59
2023/07/06 06:28:20;;;;;;;6.35;5.25;;;;;;;19.10;96.55;96748.94;5043379;28;20273;-57
2023/07/06 06:30:46;;;;;;;5.93;5.10;;;;;;;19.24;95.88;96738.13;5043051;28;20217;-58
2023/07/06 06:33:12;;;;;;;6.32;5.68;;;;;;;19.30;95.87;96744.59;5042708;28;20195;-58
2023/07/06 06:35:39;;;;;;;6.07;5.47;;;;;;;19.34;96.20;96743.97;5043464;28;20219;-58
2023/07/06 06:38:07;;;;;;;5.97;5.50;;;;;;;19.34;95.74;96745.84;5043453;28;20628;-57
2023/07/06 06:40:36;;;;;;;6.10;5.50;;;;;;;19.34;96.35;96743.19;5043229;28;20203;-59
2023/07/06 06:43:03;;;;;;;7.38;5.85;;;;;;;19.37;96.49;96740.94;5042541;28;20221;-59
2023/07/06 06:45:30;;;;;;;6.45;5.82;;;;;;;19.42;95.86;96736.84;5043689;28;20196;-58
2023/07/06 06:47:56;;;;;;;8.45;5.65;;;;;;;19.54;95.86;96746.00;5043082;28;20272;-58
2023/07/06 06:50:23;;;;;;;6.05;5.45;;;;;;;19.77;95.97;96742.03;5041874;28;20192;-58
2023/07/06 06:52:50;;;;;;;8.98;5.78;;;;;;;20.02;94.15;96742.38;5042325;28;20210;-58
2023/07/06 06:55:18;;;;;;;7.45;5.80;;;;;;;20.28;94.15;96741.69;5042079;28;20203;-59
2023/07/06 06:57:45;;;;;;;6.13;5.38;;;;;;;20.61;92.01;96741.78;5042282;28;20195;-57
2023/07/06 07:00:14;;;;;;;6.25;5.57;;;;;;;20.87;90.21;96752.56;5042369;28;20207;-58
2023/07/06 07:02:40;;;;;;;5.53;5.03;;;;;;;21.23;88.58;96741.47;5042397;28;20249;-58
2023/07/06 07:05:07;;;;;;;6.13;5.30;;;;;;;21.50;85.44;96737.75;5042851;28;20214;-58
2023/07/06 07:07:37;;;;;;;6.28;5.55;;;;;;;21.72;81.89;96738.31;5043960;28;20229;-58
2023/07/06 07:10:05;;;;;;;5.43;5.00;;;;;;;21.83;80.78;96743.88;5045755;28;20207;-58
2023/07/06 07:12:33;;;;;;;5.60;5.15;;;;;;;22.00;80.04;96751.56;5048367;28;20269;-58
2023/07/06 07:14:59;;;;;;;5.95;5.28;;;;;;;22.03;79.95;96753.81;5047072;28;20191;-57
2023/07/06 07:17:27;;;;;;;6.30;5.20;;;;;;;22.29;80.46;96753.72;5044049;28;20262;-57
2023/07/06 07:19:54;;;;;;;7.13;5.20;;;;;;;22.38;78.32;96752.44;5043148;28;20203;-57
2023/07/06 07:22:21;;;;;;;5.40;4.88;;;;;;;22.60;78.21;96753.75;5042908;28;20210;-57
2023/07/06 07:24:48;;;;;;;5.80;5.30;;;;;;;22.64;75.13;96755.00;5042511;28;20655;-58
2023/07/06 07:27:14;;;;;;;6.22;4.90;;;;;;;22.99;74.75;96749.22;5041538;28;20286;-57
2023/07/06 07:29:43;;;;;;;5.97;5.38;;;;;;;23.18;74.85;96749.06;5042277;28;20210;-58
2023/07/06 07:32:10;;;;;;;5.35;4.88;;;;;;;23.46;74.28;96751.34;5042365;28;20380;-58
2023/07/06 07:34:36;;;;;;;6.07;5.05;;;;;;;23.34;69.22;96744.19;5042675;28;20757;-59
2023/07/06 07:37:03;;;;;;;5.65;5.05;;;;;;;23.44;71.16;96745.38;5041988;28;20200;-58
2023/07/06 07:39:31;;;;;;;6.63;5.43;;;;;;;23.58;69.35;96736.09;5042288;28;20199;-58
2023/07/06 07:41:58;;;;;;;6.95;5.60;;;;;;;23.66;70.71;96743.09;5042494;28;20555;-57
2023/07/06 07:44:28;;;;;;;6.80;6.10;;;;;;;23.59;71.50;96737.75;5042320;28;20219;-58
2023/07/06 07:46:55;;;;;;;9.40;6.32;;;;;;;23.61;72.97;96734.81;5042569;28;20211;-57
2023/07/06 07:49:22;;;;;;;6.65;5.95;;;;;;;23.90;73.01;96744.91;5041872;28;20230;-58
2023/07/06 07:51:48;;;;;;;9.77;6.03;;;;;;;24.13;73.15;96744.28;5042779;28;20203;-58
2023/07/06 07:54:15;;;;;;;6.88;6.15;;;;;;;24.25;70.58;96742.47;5043588;28;20202;-59
2023/07/06 07:56:42;;;;;;;6.75;5.88;;;;;;;24.43;70.68;96753.28;5045757;28;20642;-58
2023/07/06 07:59:09;;;;;;;7.10;6.30;;;;;;;24.57;69.33;96746.66;5046105;28;20207;-58
2023/07/06 08:01:36;;;;;;;7.43;6.28;;;;;;;24.34;67.60;96749.22;5047317;28;20218;-57
2023/07/06 08:04:03;;;;;;;7.45;5.82;;;;;;;24.42;69.73;96754.31;5044587;28;20227;-58
2023/07/06 08:06:30;;;;;;;6.60;5.80;;;;;;;24.38;68.33;96745.00;5048466;28;20208;-60
2023/07/06 08:08:57;;;;;;;6.55;5.53;;;;;;;24.58;66.79;96756.41;5047364;28;20715;-59
2023/07/06 08:11:24;;;;;;;9.02;5.82;;;;;;;24.65;67.04;96753.63;5046155;28;20203;-58
2023/07/06 08:13:53;;;;;;;5.40;5.00;;;;;;;24.57;66.85;96756.63;5044333;28;20207;-57
2023/07/06 08:16:21;;;;;;;6.07;5.57;;;;;;;24.73;64.26;96759.50;5047403;28;20235;-58
2023/07/06 08:18:52;;;;;;;6.03;4.93;;;;;;;24.94;62.09;96754.72;5045187;28;20215;-57
2023/07/06 08:21:23;;;;;;;7.38;4.97;;;;;;;24.83;58.43;96748.19;5043258;28;20210;-58
2023/07/06 08:23:53;;;;;;;5.50;5.00;;;;;;;24.97;59.94;96757.78;5042507;28;20664;-58
2023/07/06 08:26:19;;;;;;;5.97;5.47;;;;;;;24.94;62.69;96758.22;5042674;28;20648;-57
2023/07/06 08:28:46;;;;;;;6.82;5.32;;;;;;;25.17;63.67;96755.59;5041078;28;20218;-58
2023/07/06 08:31:13;;;;;;;7.03;5.50;;;;;;;25.28;62.17;96759.38;5042805;28;20205;-58
2023/07/06 08:33:40;;;;;;;6.68;4.93;;;;;;;25.49;61.61;96755.28;5043073;28;20224;-58
2023/07/06 08:36:09;;;;;;;7.82;5.35;;;;;;;25.70;58.70;96768.28;5043397;28;20212;-58
2023/07/06 08:38:37;;;;;;;6.15;5.28;;;;;;;25.52;60.55;96771.09;5043037;28;20214;-58
2023/07/06 08:41:12;;;;;;;6.13;5.22;;;;;;;25.53;57.67;96765.44;5046845;28;20203;-58
2023/07/06 08:43:42;;;;;;;6.60;5.43;;;;;;;25.41;58.15;96772.69;5050450;28;20270;-59
2023/07/06 08:46:11;;;;;;;5.60;5.10;;;;;;;25.53;58.55;96765.44;5041627;28;20640;-59
2023/07/06 08:48:38;;;;;;;5.50;4.63;;;;;;;25.64;58.18;96772.78;5041646;28;20749;-57
2023/07/06 08:51:15;;;;;;;5.93;5.07;;;;;;;25.71;56.50;96765.34;5041612;28;20199;-58
2023/07/06 08:53:49;;;;;;;5.05;4.50;;;;;;;25.97;56.30;96765.94;5041576;28;20210;-58
2023/07/06 08:56:18;;;;;;;6.32;5.55;;;;;;;25.91;52.29;96766.88;5043256;28;20211;-58
2023/07/06 08:58:45;;;;;;;5.68;5.18;;;;;;;26.10;52.92;96769.22;5045163;28;20249;-59
2023/07/06 09:01:13;;;;;;;5.18;4.68;;;;;;;26.18;52.80;96760.72;5042333;28;20559;-58
2023/07/06 09:03:43;;;;;;;6.20;4.80;;;;;;;26.23;51.60;96760.03;5041397;28;20242;-59
2023/07/06 09:06:12;;;;;;;5.95;5.20;;;;;;;26.06;50.81;96759.09;5041407;28;20281;-59
2023/07/06 09:08:41;;;;;;;5.60;5.10;;;;;;;25.89;50.46;96769.00;5041772;28;20232;-58
2023/07/06 09:11:10;;;;;;;5.57;5.07;;;;;;;26.05;51.55;96763.69;5041558;28;20217;-60
2023/07/06 09:13:44;;;;;;;5.38;4.93;;;;;;;25.86;50.44;96766.78;5042036;28;20302;-58
2023/07/06 09:16:11;;;;;;;5.97;5.38;;;;;;;26.02;50.81;96760.63;5047091;28;20253;-59
2023/07/06 09:18:37;;;;;;;6.07;5.50;;;;;;;25.88;52.99;96762.75;5046500;28;20199;-59
2023/07/06 09:21:05;;;;;;;5.90;5.25;;;;;;;26.09;51.43;96764.84;5045923;28;20200;-59
2023/07/06 09:23:32;;;;;;;5.80;5.30;;;;;;;26.20;52.97;96764.06;5045839;28;20199;-58
2023/07/06 09:25:58;;;;;;;6.70;5.13;;;;;;;26.33;52.47;96762.94;5045387;28;20223;-58
2023/07/06 09:28:29;;;;;;;6.88;5.25;;;;;;;26.19;50.65;96758.84;5044522;28;20211;-59
2023/07/06 09:31:07;;;;;;;5.72;5.22;;;;;;;25.94;50.48;96759.09;5044182;28;20652;-58
2023/07/06 09:33:34;;;;;;;6.93;5.15;;;;;;;25.58;50.39;96746.59;5044232;28;20222;-60
2023/07/06 09:36:01;;;;;;;5.65;5.05;;;;;;;25.56;54.08;96750.59;5043922;28;20208;-58
2023/07/06 09:38:27;;;;;;;5.43;4.88;;;;;;;25.69;53.96;96745.78;5046504;28;20204;-58
2023/07/06 09:40:54;;;;;;;4.88;4.47;;;;;;;25.76;52.65;96751.06;5044248;28;20230;-59
2023/07/06 09:43:23;;;;;;;5.15;4.65;;;;;;;25.99;50.58;96750.25;5044506;28;20207;-58
2023/07/06 09:45:51;;;;;;;5.07;4.68;;;;;;;26.03;51.29;96752.25;5044686;28;20377;-58
2023/07/06 09:48:31;;;;;;;5.05;4.65;;;;;;;26.09;48.94;96745.06;5044741;28;20223;-57
2023/07/06 09:51:03;;;;;;;5.30;4.80;;;;;;;26.15;48.54;96744.09;5044706;28;20620;-60
2023/07/06 09:53:32;;;;;;;5.22;4.38;;;;;;;26.53;49.74;96755.25;5043788;28;20286;-58
2023/07/06 09:55:59;;;;;;;6.00;4.47;;;;;;;26.51;49.92;96751.94;5043964;28;20620;-58
2023/07/06 09:58:29;;;;;;;5.05;4.65;;;;;;;26.69;49.86;96748.22;5043924;28;20197;-60
2023/07/06 10:01:03;;;;;;;4.72;4.30;;;;;;;26.63;48.46;96750.03;5044629;28;20655;-58
2023/07/06 10:03:40;;;;;;;5.25;4.70;;;;;;;26.89;49.05;96742.41;5043382;28;20700;-58
2023/07/06 10:06:19;;;;;;;5.68;4.70;;;;;;;26.78;50.24;96744.06;5044783;28;20714;-58
2023/07/06 10:08:52;;;;;;;4.57;4.18;;;;;;;26.69;47.98;96748.22;5044081;28;20200;-59
2023/07/06 10:11:24;;;;;;;4.85;4.45;;;;;;;26.92;47.68;96744.63;5043817;28;20231;-58
2023/07/06 10:13:57;;;;;;;4.68;4.28;;;;;;;26.41;46.60;96754.44;5043932;28;20294;-57
2023/07/06 10:16:41;;;;;;;5.18;4.78;;;;;;;26.69;47.73;96746.34;5043093;28;20648;-59
2023/07/06 10:19:12;;;;;;;5.10;4.68;;;;;;;26.73;46.96;96744.78;5043355;28;20273;-58
2023/07/06 10:21:44;;;;;;;5.47;4.97;;;;;;;26.80;48.39;96744.66;5043826;28;20635;-58
2023/07/06 10:24:20;;;;;;;5.00;4.30;;;;;;;26.99;47.25;96754.28;5043910;28;20249;-58
2023/07/06 10:26:49;;;;;;;5.05;4.60;;;;;;;27.00;46.36;96744.22;5043877;28;20195;-58
2023/07/06 10:29:18;;;;;;;5.78;4.78;;;;;;;27.16;47.40;96752.41;5043667;28;20210;-61
2023/07/06 10:31:51;;;;;;;4.50;4.10;;;;;;;27.24;47.56;96745.75;5043482;28;20203;-59
2023/07/06 10:34:20;;;;;;;4.80;4.40;;;;;;;27.51;45.30;96746.78;5043420;28;20191;-59
2023/07/06 10:36:47;;;;;;;5.80;4.88;;;;;;;27.37;47.26;96748.16;5043772;28;20238;-60
2023/07/06 10:39:53;;;;;;;5.25;4.75;;;;;;;27.39;45.83;96743.28;5043395;28;20257;-58
2023/07/06 10:42:23;;;;;;;4.82;4.32;;;;;;;27.16;47.68;96735.28;5043669;28;20191;-58
2023/07/06 10:44:51;;;;;;;4.82;4.40;;;;;;;26.30;46.59;96730.06;5043374;28;20219;-58
2023/07/06 10:47:40;;;;;;;4.90;4.47;;;;;;;26.22;47.33;96731.25;5044066;28;20637;-58
2023/07/06 10:50:26;;;;;;;5.45;4.68;;;;;;;25.89;48.56;96739.19;5044063;28;20196;-58
2023/07/06 10:53:04;;;;;;;4.55;4.15;;;;;;;25.72;49.23;96742.59;5044333;28;20265;-58
2023/07/06 10:55:34;;;;;;;6.25;4.45;;;;;;;25.57;49.82;96741.44;5043190;28;20209;-58
2023/07/06 10:58:23;;;;;;;4.82;4.43;;;;;;;25.74;49.30;96735.06;5042701;28;20204;-58
2023/07/06 11:00:50;;;;;;;4.32;3.90;;;;;;;25.95;47.55;96727.41;5042983;28;20199;-58
2023/07/06 11:03:23;;;;;;;4.32;3.92;;;;;;;26.18;46.76;96730.13;5042754;28;20572;-58
2023/07/06 11:05:56;;;;;;;4.18;3.88;;;;;;;26.44;46.11;96726.03;5043374;28;20297;-58
2023/07/06 11:08:55;;;;;;;4.53;3.97;;;;;;;26.58;45.39;96722.78;5041701;28;20229;-58
2023/07/06 11:11:25;;;;;;;4.30;4.00;;;;;;;26.80;45.10;96719.41;5042828;28;20215;-57
2023/07/06 11:13:53;;;;;;;4.28;3.97;;;;;;;27.00;46.31;96711.63;5042170;28;20207;-58
2023/07/06 11:16:24;;;;;;;4.25;3.95;;;;;;;27.30;46.85;96714.91;5042891;28;20211;-58
2023/07/06 11:18:53;;;;;;;5.00;4.30;;;;;;;27.24;44.21;96720.50;5042340;28;20203;-57
2023/07/06 11:21:31;;;;;;;4.50;4.13;;;;;;;26.90;43.90;96714.19;5042660;28;20203;-59
2023/07/06 11:24:02;;;;;;;4.65;4.20;;;;;;;26.70;44.74;96711.91;5042044;28;20640;-57
2023/07/06 11:26:37;;;;;;;4.40;4.03;;;;;;;26.68;43.69;96720.25;5043382;28;20207;-58
2023/07/06 11:29:07;;;;;;;4.13;3.83;;;;;;;26.47;43.60;96720.94;5042646;28;20537;-58
2023/07/06 11:31:54;;;;;;;5.07;4.10;;;;;;;26.54;44.12;96727.03;5042906;28;20310;-58
2023/07/06 11:34:31;;;;;;;4.20;3.90;;;;;;;26.48;45.79;96710.91;5042764;28;20609;-59
2023/07/06 11:37:02;;;;;;;4.55;4.13;;;;;;;26.26;46.54;96718.88;5042214;28;20208;-60
2023/07/06 11:39:33;;;;;;;4.35;3.95;;;;;;;26.08;46.63;96717.13;5042373;28;20199;-59
2023/07/06 11:42:00;;;;;;;5.53;3.65;;;;;;;25.96;47.85;96718.22;5042237;28;20195;-59